createdAt,value
2023-02-09T00:00:12.371Z,101579.50
2023-02-09T00:00:44.053Z,101586.59
2023-02-09T00:01:15.665Z,101579.84
2023-02-09T00:01:47.100Z,101580.09
2023-02-09T00:02:18.573Z,101579.25
2023-02-09T00:02:50.015Z,101581.16
2023-02-09T00:03:21.490Z,101580.31
2023-02-09T00:03:52.994Z,101583.06
2023-02-09T00:04:24.536Z,101578.69
2023-02-09T00:04:56.032Z,101581.16
2023-02-09T00:05:27.470Z,101582.81
2023-02-09T00:05:58.802Z,101585.53
2023-02-09T00:06:30.333Z,101580.31
2023-02-09T00:07:01.760Z,101584.72
2023-02-09T00:07:33.232Z,101575.94
2023-02-09T00:08:04.626Z,101577.59
2023-02-09T00:08:36.059Z,101581.97
2023-02-09T00:09:07.508Z,101581.16
2023-02-09T00:09:38.940Z,101574.88
2023-02-09T00:10:10.389Z,101576.53
2023-02-09T00:10:41.771Z,101582.22
2023-02-09T00:11:13.153Z,101574.06
2023-02-09T00:11:44.577Z,101580.91
2023-02-09T00:12:16.007Z,101577.34
2023-02-09T00:12:47.410Z,101582.56
2023-02-09T00:13:18.854Z,101577.03
2023-02-09T00:13:50.283Z,101576.78
2023-02-09T00:14:22.305Z,101574.88
2023-02-09T00:14:53.850Z,101579.75
2023-02-09T00:15:25.338Z,101577.84
2023-02-09T00:15:56.738Z,101577.03
2023-02-09T00:16:28.171Z,101575.94
2023-02-09T00:16:59.563Z,101578.69
2023-02-09T00:17:31.010Z,101573.81
2023-02-09T00:18:02.401Z,101576.53
2023-02-09T00:18:33.885Z,101566.13
2023-02-09T00:19:05.300Z,101577.03
2023-02-09T00:19:36.670Z,101569.09
2023-02-09T00:20:08.172Z,101561.75
2023-02-09T00:20:39.777Z,101572.41
2023-02-09T00:21:11.253Z,101565.28
2023-02-09T00:21:42.693Z,101570.25
2023-02-09T00:22:14.097Z,101570.50
2023-02-09T00:22:45.509Z,101559.59
2023-02-09T00:23:16.915Z,101564.81
2023-02-09T00:23:48.332Z,101562.00
2023-02-09T00:24:19.753Z,101557.13
2023-02-09T00:24:51.143Z,101559.59
2023-02-09T00:25:22.562Z,101557.94
2023-02-09T00:25:54.030Z,101557.13
2023-02-09T00:26:25.528Z,101561.50
2023-02-09T00:26:56.945Z,101555.47
2023-02-09T00:27:28.413Z,101550.84
2023-02-09T00:27:59.862Z,101548.13
2023-02-09T00:28:31.299Z,101545.41
2023-02-09T00:29:02.828Z,101548.13
2023-02-09T00:29:34.270Z,101549.78
2023-02-09T00:30:05.707Z,101552.50
2023-02-09T00:30:37.155Z,101548.69
2023-02-09T00:31:08.706Z,101551.19
2023-02-09T00:31:40.162Z,101553.31
2023-02-09T00:32:11.652Z,101551.44
2023-02-09T00:32:43.165Z,101556.28
2023-02-09T00:33:14.558Z,101551.66
2023-02-09T00:33:45.975Z,101549.78
2023-02-09T00:34:17.368Z,101557.38
2023-02-09T00:34:48.818Z,101553.56
2023-02-09T00:35:20.204Z,101551.44
2023-02-09T00:35:51.626Z,101556.28
2023-02-09T00:36:23.161Z,101558.78
2023-02-09T00:36:54.569Z,101557.94
2023-02-09T00:37:26.003Z,101558.19
2023-02-09T00:37:57.410Z,101565.28
2023-02-09T00:38:28.780Z,101566.38
2023-02-09T00:39:00.337Z,101560.09
2023-02-09T00:39:31.750Z,101562.56
2023-02-09T00:40:03.198Z,101565.28
2023-02-09T00:40:34.663Z,101556.78
2023-02-09T00:41:06.116Z,101554.06
2023-02-09T00:41:37.609Z,101558.44
2023-02-09T00:42:09.027Z,101557.38
2023-02-09T00:42:40.435Z,101550.84
2023-02-09T00:43:11.870Z,101548.13
2023-02-09T00:43:43.277Z,101554.63
2023-02-09T00:44:14.679Z,101546.22
2023-02-09T00:44:46.107Z,101550.59
2023-02-09T00:45:17.560Z,101548.94
2023-02-09T00:45:49.026Z,101543.50
2023-02-09T00:46:20.523Z,101554.63
2023-02-09T00:46:51.978Z,101553.00
2023-02-09T00:47:23.321Z,101562.00
2023-02-09T00:47:54.736Z,101544.81
2023-02-09T00:48:26.121Z,101551.66
2023-02-09T00:48:57.548Z,101551.09
2023-02-09T00:49:28.938Z,101554.06
2023-02-09T00:50:00.344Z,101554.06
2023-02-09T00:50:31.782Z,101545.63
2023-02-09T00:51:03.196Z,101559.03
2023-02-09T00:51:34.626Z,101559.03
2023-02-09T00:52:06.471Z,101559.03
2023-02-09T00:52:38.528Z,101553.56
2023-02-09T00:53:09.968Z,101564.47
2023-02-09T00:53:41.381Z,101560.09
2023-02-09T00:54:12.763Z,101562.81
2023-02-09T00:54:44.176Z,101561.16
2023-02-09T00:55:15.567Z,101554.63
2023-02-09T00:55:47.000Z,101562.31
2023-02-09T00:56:18.421Z,101552.75
2023-02-09T00:56:49.802Z,101559.84
2023-02-09T00:57:21.347Z,101562.00
2023-02-09T00:57:52.778Z,101556.53
2023-02-09T00:58:24.200Z,101556.78
2023-02-09T00:58:55.611Z,101560.34
2023-02-09T00:59:26.995Z,101554.88
2023-02-09T00:59:58.430Z,101547.53
2023-02-09T01:00:29.821Z,101552.75
2023-02-09T01:01:01.251Z,101555.47
2023-02-09T01:01:32.752Z,101554.63
2023-02-09T01:02:04.169Z,101553.00
2023-02-09T01:02:35.657Z,101557.38
2023-02-09T01:03:06.998Z,101558.19
2023-02-09T01:03:38.427Z,101558.19
2023-02-09T01:04:09.843Z,101553.06
2023-02-09T01:04:41.332Z,101559.03
2023-02-09T01:05:12.872Z,101559.25
2023-02-09T01:05:44.290Z,101555.72
2023-02-09T01:06:15.735Z,101560.34
2023-02-09T01:06:47.153Z,101555.72
2023-02-09T01:07:18.554Z,101555.13
2023-02-09T01:07:50.012Z,101557.84
2023-02-09T01:08:21.450Z,101553.00
2023-02-09T01:08:52.870Z,101559.25
2023-02-09T01:09:24.257Z,101554.63
2023-02-09T01:09:55.792Z,101557.38
2023-02-09T01:10:27.178Z,101553.00
2023-02-09T01:10:58.626Z,101549.69
2023-02-09T01:11:29.988Z,101558.44
2023-02-09T01:12:01.417Z,101546.22
2023-02-09T01:12:32.898Z,101554.63
2023-02-09T01:13:04.282Z,101559.03
2023-02-09T01:13:35.665Z,101556.88
2023-02-09T01:14:07.051Z,101557.13
2023-02-09T01:14:38.550Z,101559.25
2023-02-09T01:15:10.001Z,101553.56
2023-02-09T01:15:41.581Z,101563.66
2023-02-09T01:16:12.975Z,101556.28
2023-02-09T01:16:44.459Z,101550.00
2023-02-09T01:17:15.997Z,101553.00
2023-02-09T01:17:47.409Z,101550.00
2023-02-09T01:18:18.818Z,101555.13
2023-02-09T01:18:50.250Z,101551.34
2023-02-09T01:19:21.628Z,101556.78
2023-02-09T01:19:53.146Z,101546.72
2023-02-09T01:20:24.580Z,101555.72
2023-02-09T01:20:56.778Z,101551.91
2023-02-09T01:21:28.189Z,101557.38
2023-02-09T01:21:59.606Z,101553.81
2023-02-09T01:22:31.081Z,101559.03
2023-02-09T01:23:02.509Z,101556.53
2023-02-09T01:23:33.917Z,101561.75
2023-02-09T01:24:05.368Z,101561.16
2023-02-09T01:24:36.728Z,101557.63
2023-02-09T01:25:08.108Z,101557.63
2023-02-09T01:25:39.591Z,101555.13
2023-02-09T01:26:11.018Z,101551.81
2023-02-09T01:26:42.425Z,101557.28
2023-02-09T01:27:13.800Z,101559.50
2023-02-09T01:27:45.258Z,101559.25
2023-02-09T01:28:16.688Z,101563.66
2023-02-09T01:28:48.140Z,101559.03
2023-02-09T01:29:19.510Z,101556.78
2023-02-09T01:29:50.924Z,101566.63
2023-02-09T01:30:22.356Z,101562.00
2023-02-09T01:30:53.899Z,101563.66
2023-02-09T01:31:25.460Z,101570.16
2023-02-09T01:31:57.138Z,101564.47
2023-02-09T01:32:28.565Z,101560.34
2023-02-09T01:33:00.094Z,101561.16
2023-02-09T01:33:31.545Z,101560.59
2023-02-09T01:34:03.061Z,101561.16
2023-02-09T01:34:34.480Z,101553.91
2023-02-09T01:35:05.898Z,101562.56
2023-02-09T01:35:37.389Z,101556.88
2023-02-09T01:36:08.860Z,101559.50
2023-02-09T01:36:40.381Z,101555.72
2023-02-09T01:37:11.784Z,101562.25
2023-02-09T01:37:43.240Z,101557.13
2023-02-09T01:38:14.710Z,101561.16
2023-02-09T01:38:46.194Z,101560.59
2023-02-09T01:39:17.593Z,101556.44
2023-02-09T01:39:49.031Z,101561.16
2023-02-09T01:40:20.446Z,101558.09
2023-02-09T01:40:51.840Z,101558.69
2023-02-09T01:41:23.274Z,101560.59
2023-02-09T01:41:54.764Z,101559.19
2023-02-09T01:42:26.190Z,101558.94
2023-02-09T01:42:57.660Z,101558.94
2023-02-09T01:43:29.133Z,101554.56
2023-02-09T01:44:00.596Z,101557.03
2023-02-09T01:44:33.934Z,101553.72
2023-02-09T01:45:05.377Z,101554.06
2023-02-09T01:45:36.847Z,101557.84
2023-02-09T01:46:08.264Z,101551.59
2023-02-09T01:46:39.825Z,101551.59
2023-02-09T01:47:11.308Z,101552.41
2023-02-09T01:47:42.708Z,101556.53
2023-02-09T01:48:14.161Z,101550.25
2023-02-09T01:48:45.613Z,101559.25
2023-02-09T01:49:17.059Z,101553.81
2023-02-09T01:49:48.444Z,101550.50
2023-02-09T01:50:19.864Z,101553.22
2023-02-09T01:50:51.295Z,101550.75
2023-02-09T01:51:22.690Z,101555.97
2023-02-09T01:51:54.230Z,101553.22
2023-02-09T01:52:25.631Z,101549.94
2023-02-09T01:52:57.016Z,101541.84
2023-02-09T01:53:28.415Z,101540.44
2023-02-09T01:53:59.897Z,101544.00
2023-02-09T01:54:31.317Z,101539.63
2023-02-09T01:55:02.761Z,101538.53
2023-02-09T01:55:34.162Z,101539.13
2023-02-09T01:56:05.706Z,101535.81
2023-02-09T01:56:37.124Z,101531.44
2023-02-09T01:57:08.562Z,101527.63
2023-02-09T01:57:39.971Z,101520.53
2023-02-09T01:58:11.434Z,101519.22
2023-02-09T01:58:42.840Z,101520.28
2023-02-09T01:59:14.342Z,101515.34
2023-02-09T01:59:45.762Z,101514.84
2023-02-09T02:00:17.127Z,101508.56
2023-02-09T02:00:48.532Z,101521.38
2023-02-09T02:01:19.970Z,101513.78
2023-02-09T02:01:51.405Z,101515.66
2023-02-09T02:02:22.954Z,101516.75
2023-02-09T02:02:54.410Z,101515.41
2023-02-09T02:03:25.895Z,101514.84
2023-02-09T02:03:57.249Z,101523.84
2023-02-09T02:04:28.685Z,101519.22
2023-02-09T02:05:00.169Z,101529.28
2023-02-09T02:05:31.563Z,101524.09
2023-02-09T02:06:03.060Z,101527.88
2023-02-09T02:06:34.466Z,101527.06
2023-02-09T02:07:05.880Z,101530.38
2023-02-09T02:07:37.287Z,101530.59
2023-02-09T02:08:08.662Z,101525.97
2023-02-09T02:08:40.070Z,101532.25
2023-02-09T02:09:11.469Z,101531.69
2023-02-09T02:09:42.927Z,101528.47
2023-02-09T02:10:14.342Z,101527.06
2023-02-09T02:10:46.138Z,101528.13
2023-02-09T02:11:17.838Z,101530.84
2023-02-09T02:11:49.217Z,101534.41
2023-02-09T02:12:20.649Z,101526.22
2023-02-09T02:12:52.077Z,101526.81
2023-02-09T02:13:23.480Z,101528.97
2023-02-09T02:13:54.883Z,101526.81
2023-02-09T02:14:26.368Z,101525.16
2023-02-09T02:14:57.752Z,101527.31
2023-02-09T02:15:29.220Z,101527.63
2023-02-09T02:16:00.859Z,101521.38
2023-02-09T02:16:32.483Z,101523.50
2023-02-09T02:17:04.051Z,101524.00
2023-02-09T02:17:35.431Z,101530.84
2023-02-09T02:18:06.852Z,101523.50
2023-02-09T02:18:38.250Z,101524.34
2023-02-09T02:19:09.696Z,101521.84
2023-02-09T02:19:41.126Z,101525.66
2023-02-09T02:20:12.483Z,101521.84
2023-02-09T02:20:44.190Z,101524.81
2023-02-09T02:21:15.725Z,101526.47
2023-02-09T02:21:47.155Z,101531.09
2023-02-09T02:22:18.535Z,101522.09
2023-02-09T02:22:49.941Z,101512.84
2023-02-09T02:23:21.344Z,101522.09
2023-02-09T02:23:52.768Z,101514.75
2023-02-09T02:24:24.195Z,101517.47
2023-02-09T02:24:55.572Z,101513.09
2023-02-09T02:25:27.039Z,101516.41
2023-02-09T02:25:58.406Z,101512.59
2023-02-09T02:26:29.902Z,101508.81
2023-02-09T02:27:01.336Z,101512.59
2023-02-09T02:27:32.765Z,101502.53
2023-02-09T02:28:04.375Z,101494.59
2023-02-09T02:28:35.795Z,101499.00
2023-02-09T02:29:07.230Z,101505.25
2023-02-09T02:29:38.621Z,101499.56
2023-02-09T02:30:10.024Z,101493.53
2023-02-09T02:30:41.522Z,101503.59
2023-02-09T02:31:13.177Z,101503.59
2023-02-09T02:31:44.795Z,101491.63
2023-02-09T02:32:16.243Z,101497.59
2023-02-09T02:32:47.629Z,101500.06
2023-02-09T02:33:19.066Z,101504.44
2023-02-09T02:33:50.477Z,101499.81
2023-02-09T02:34:21.901Z,101505.50
2023-02-09T02:34:53.308Z,101500.63
2023-02-09T02:35:24.772Z,101499.00
2023-02-09T02:35:56.180Z,101503.38
2023-02-09T02:36:27.616Z,101498.75
2023-02-09T02:36:59.137Z,101505.84
2023-02-09T02:37:30.544Z,101503.59
2023-02-09T02:38:02.023Z,101506.59
2023-02-09T02:38:33.419Z,101508.56
2023-02-09T02:39:04.842Z,101510.47
2023-02-09T02:39:36.281Z,101502.53
2023-02-09T02:40:07.629Z,101510.97
2023-02-09T02:40:39.042Z,101504.44
2023-02-09T02:41:10.479Z,101502.19
2023-02-09T02:41:41.880Z,101504.69
2023-02-09T02:42:13.297Z,101501.47
2023-02-09T02:42:44.684Z,101504.44
2023-02-09T02:43:16.153Z,101508.22
2023-02-09T02:43:47.658Z,101501.97
2023-02-09T02:44:19.032Z,101500.06
2023-02-09T02:44:50.484Z,101500.31
2023-02-09T02:45:21.868Z,101505.75
2023-02-09T02:45:53.354Z,101508.47
2023-02-09T02:46:24.798Z,101497.34
2023-02-09T02:46:56.262Z,101505.84
2023-02-09T02:47:27.681Z,101505.00
2023-02-09T02:47:59.109Z,101506.59
2023-02-09T02:48:30.490Z,101501.47
2023-02-09T02:49:01.972Z,101505.50
2023-02-09T02:49:33.429Z,101499.81
2023-02-09T02:50:05.003Z,101500.06
2023-02-09T02:50:36.452Z,101510.97
2023-02-09T02:51:07.949Z,101517.47
2023-02-09T02:51:39.408Z,101502.19
2023-02-09T02:52:10.838Z,101508.47
2023-02-09T02:52:42.222Z,101505.75
2023-02-09T02:53:13.691Z,101510.13
2023-02-09T02:53:45.106Z,101507.16
2023-02-09T02:54:16.576Z,101509.31
2023-02-09T02:54:48.029Z,101513.09
2023-02-09T02:55:19.466Z,101513.69
2023-02-09T02:55:50.877Z,101514.75
2023-02-09T02:56:22.287Z,101517.47
2023-02-09T02:56:53.698Z,101515.59
2023-02-09T02:57:25.109Z,101515.59
2023-02-09T02:57:56.543Z,101519.63
2023-02-09T02:58:27.935Z,101514.75
2023-02-09T02:58:59.347Z,101511.19
2023-02-09T02:59:30.814Z,101520.44
2023-02-09T03:00:05.215Z,101522.34
2023-02-09T03:00:36.644Z,101510.97
2023-02-09T03:01:08.018Z,101513.69
2023-02-09T03:01:39.626Z,101518.31
2023-02-09T03:02:13.901Z,101517.22
2023-02-09T03:02:45.357Z,101515.59
2023-02-09T03:03:16.747Z,101516.41
2023-02-09T03:03:48.137Z,101518.88
2023-02-09T03:04:19.547Z,101510.97
2023-02-09T03:04:50.978Z,101511.78
2023-02-09T03:05:22.549Z,101508.47
2023-02-09T03:05:54.036Z,101514.16
2023-02-09T03:06:25.432Z,101512.28
2023-02-09T03:06:56.860Z,101495.94
2023-02-09T03:07:28.274Z,101503.03
2023-02-09T03:07:59.727Z,101501.13
2023-02-09T03:08:31.131Z,101507.06
2023-02-09T03:09:02.589Z,101508.47
2023-02-09T03:09:33.998Z,101501.13
2023-02-09T03:10:05.474Z,101501.63
2023-02-09T03:10:37.003Z,101497.59
2023-02-09T03:11:08.391Z,101499.47
2023-02-09T03:11:39.845Z,101501.63
2023-02-09T03:12:11.273Z,101503.78
2023-02-09T03:12:42.697Z,101503.78
2023-02-09T03:13:14.127Z,101509.56
2023-02-09T03:13:45.541Z,101516.41
2023-02-09T03:14:16.966Z,101505.00
2023-02-09T03:14:48.376Z,101512.03
2023-02-09T03:15:19.848Z,101501.13
2023-02-09T03:15:51.307Z,101500.88
2023-02-09T03:16:22.771Z,101502.19
2023-02-09T03:16:54.264Z,101500.88
2023-02-09T03:17:25.670Z,101499.22
2023-02-09T03:17:57.089Z,101498.16
2023-02-09T03:18:28.482Z,101491.88
2023-02-09T03:18:59.845Z,101492.97
2023-02-09T03:19:31.326Z,101489.66
2023-02-09T03:20:02.755Z,101488.00
2023-02-09T03:20:34.201Z,101484.78
2023-02-09T03:21:05.589Z,101488.34
2023-02-09T03:21:37.000Z,101494.59
2023-02-09T03:22:08.428Z,101482.06
2023-02-09T03:22:39.842Z,101491.31
2023-02-09T03:23:11.181Z,101485.84
2023-02-09T03:23:42.587Z,101485.84
2023-02-09T03:24:13.992Z,101486.19
2023-02-09T03:24:45.395Z,101493.53
2023-02-09T03:25:16.852Z,101484.03
2023-02-09T03:25:48.351Z,101481.56
2023-02-09T03:26:19.764Z,101488.09
2023-02-09T03:26:51.173Z,101490.22
2023-02-09T03:27:22.533Z,101489.41
2023-02-09T03:27:53.994Z,101487.75
2023-02-09T03:28:25.489Z,101480.41
2023-02-09T03:28:56.904Z,101485.84
2023-02-09T03:29:28.298Z,101484.22
2023-02-09T03:29:59.780Z,101484.22
2023-02-09T03:30:31.214Z,101488.00
2023-02-09T03:31:02.866Z,101478.44
2023-02-09T03:31:34.436Z,101489.31
2023-02-09T03:32:37.269Z,101490.72
2023-02-09T03:33:10.600Z,101484.69
2023-02-09T03:33:42.060Z,101484.22
2023-02-09T03:34:13.455Z,101492.72
2023-02-09T03:34:44.858Z,101491.31
2023-02-09T03:35:16.271Z,101484.78
2023-02-09T03:35:47.660Z,101494.59
2023-02-09T03:36:19.202Z,101489.41
2023-02-09T03:36:50.614Z,101492.13
2023-02-09T03:37:22.029Z,101490.47
2023-02-09T03:37:53.442Z,101494.59
2023-02-09T03:38:24.837Z,101487.00
2023-02-09T03:38:56.288Z,101494.59
2023-02-09T03:39:27.719Z,101495.69
2023-02-09T03:39:59.144Z,101493.53
2023-02-09T03:40:30.543Z,101498.41
2023-02-09T03:41:01.926Z,101500.06
2023-02-09T03:41:33.364Z,101500.06
2023-02-09T03:42:04.772Z,101497.34
2023-02-09T03:42:36.188Z,101497.09
2023-02-09T03:43:07.649Z,101496.00
2023-02-09T03:43:39.063Z,101492.47
2023-02-09T03:44:10.482Z,101495.44
2023-02-09T03:44:41.991Z,101497.34
2023-02-09T03:45:13.432Z,101494.59
2023-02-09T03:45:44.862Z,101496.25
2023-02-09T03:46:16.254Z,101494.38
2023-02-09T03:46:47.831Z,101489.75
2023-02-09T03:47:19.270Z,101495.19
2023-02-09T03:47:50.680Z,101492.47
2023-02-09T03:48:22.061Z,101491.63
2023-02-09T03:48:53.465Z,101490.00
2023-02-09T03:49:24.865Z,101490.22
2023-02-09T03:49:56.267Z,101490.00
2023-02-09T03:50:27.695Z,101489.50
2023-02-09T03:50:59.122Z,101485.94
2023-02-09T03:51:30.518Z,101488.41
2023-02-09T03:52:01.982Z,101484.28
2023-02-09T03:52:33.426Z,101482.16
2023-02-09T03:53:04.812Z,101484.88
2023-02-09T03:53:36.322Z,101485.94
2023-02-09T03:54:07.787Z,101487.84
2023-02-09T03:54:39.196Z,101485.13
2023-02-09T03:55:10.656Z,101483.78
2023-02-09T03:55:42.091Z,101488.66
2023-02-09T03:56:13.463Z,101492.72
2023-02-09T03:56:44.894Z,101490.06
2023-02-09T03:57:16.360Z,101482.63
2023-02-09T03:57:47.770Z,101476.69
2023-02-09T03:58:19.227Z,101491.63
2023-02-09T03:58:50.712Z,101488.34
2023-02-09T03:59:22.103Z,101482.41
2023-02-09T03:59:53.503Z,101493.22
2023-02-09T04:00:24.939Z,101489.16
2023-02-09T04:00:56.390Z,101489.16
2023-02-09T04:01:27.862Z,101481.81
2023-02-09T04:01:59.250Z,101484.78
2023-02-09T04:02:30.865Z,101493.53
2023-02-09T04:03:02.314Z,101483.72
2023-02-09T04:03:33.699Z,101476.13
2023-02-09T04:04:05.105Z,101491.63
2023-02-09T04:04:36.513Z,101483.22
2023-02-09T04:05:07.933Z,101486.19
2023-02-09T04:05:39.579Z,101480.75
2023-02-09T04:06:11.038Z,101479.91
2023-02-09T04:06:42.414Z,101481.56
2023-02-09T04:07:13.813Z,101479.66
2023-02-09T04:07:45.336Z,101482.41
2023-02-09T04:08:16.743Z,101485.94
2023-02-09T04:08:48.198Z,101480.50
2023-02-09T04:09:19.593Z,101480.50
2023-02-09T04:09:54.152Z,101487.84
2023-02-09T04:10:25.642Z,101484.03
2023-02-09T04:10:57.131Z,101480.50
2023-02-09T04:11:28.554Z,101482.72
2023-02-09T04:11:59.953Z,101480.50
2023-02-09T04:12:31.430Z,101487.00
2023-02-09T04:13:02.856Z,101480.50
2023-02-09T04:13:34.300Z,101488.66
2023-02-09T04:14:05.729Z,101485.59
2023-02-09T04:14:37.143Z,101485.59
2023-02-09T04:15:08.592Z,101483.72
2023-02-09T04:15:40.019Z,101478.84
2023-02-09T04:16:11.459Z,101478.84
2023-02-09T04:16:42.858Z,101478.84
2023-02-09T04:17:14.282Z,101471.75
2023-02-09T04:17:45.740Z,101479.66
2023-02-09T04:18:17.118Z,101476.13
2023-02-09T04:18:48.679Z,101472.81
2023-02-09T04:19:20.091Z,101476.94
2023-02-09T04:19:51.504Z,101472.31
2023-02-09T04:20:22.960Z,101482.97
2023-02-09T04:20:54.386Z,101485.13
2023-02-09T04:21:25.861Z,101478.84
2023-02-09T04:21:57.302Z,101475.03
2023-02-09T04:22:28.737Z,101475.53
2023-02-09T04:23:00.142Z,101476.38
2023-02-09T04:23:31.545Z,101485.59
2023-02-09T04:24:03.064Z,101476.38
2023-02-09T04:24:34.488Z,101469.34
2023-02-09T04:25:05.915Z,101470.66
2023-02-09T04:25:37.316Z,101474.78
2023-02-09T04:26:08.700Z,101471.25
2023-02-09T04:26:40.147Z,101475.03
2023-02-09T04:27:11.549Z,101471.25
2023-02-09T04:27:42.952Z,101472.56
2023-02-09T04:28:14.493Z,101472.56
2023-02-09T04:28:45.950Z,101469.00
2023-02-09T04:29:17.510Z,101466.28
2023-02-09T04:29:48.908Z,101466.28
2023-02-09T04:30:20.384Z,101466.03
2023-02-09T04:30:51.825Z,101465.22
2023-02-09T04:31:23.379Z,101460.84
2023-02-09T04:31:54.855Z,101467.69
2023-02-09T04:32:26.333Z,101466.03
2023-02-09T04:32:57.736Z,101463.56
2023-02-09T04:33:29.178Z,101459.53
2023-02-09T04:34:00.620Z,101469.84
2023-02-09T04:34:32.088Z,101465.22
2023-02-09T04:35:03.502Z,101467.69
2023-02-09T04:35:34.920Z,101464.38
2023-02-09T04:36:06.327Z,101459.28
2023-02-09T04:36:37.794Z,101463.31
2023-02-09T04:37:09.231Z,101460.09
2023-02-09T04:37:40.647Z,101464.72
2023-02-09T04:38:12.041Z,101463.66
2023-02-09T04:38:43.518Z,101456.53
2023-02-09T04:39:15.028Z,101461.50
2023-02-09T04:39:46.404Z,101457.69
2023-02-09T04:40:17.870Z,101454.97
2023-02-09T04:40:49.269Z,101457.13
2023-02-09T04:41:20.688Z,101458.19
2023-02-09T04:41:52.114Z,101466.38
2023-02-09T04:42:23.492Z,101462.75
2023-02-09T04:42:54.981Z,101461.66
2023-02-09T04:43:29.146Z,101465.47
2023-02-09T04:44:00.566Z,101460.59
2023-02-09T04:44:31.987Z,101463.06
2023-02-09T04:45:06.417Z,101461.41
2023-02-09T04:45:37.848Z,101462.50
2023-02-09T04:46:09.672Z,101458.69
2023-02-09T04:46:41.184Z,101460.00
2023-02-09T04:47:12.563Z,101460.84
2023-02-09T04:47:44.005Z,101460.59
2023-02-09T04:48:15.461Z,101461.41
2023-02-09T04:48:46.948Z,101461.16
2023-02-09T04:49:18.419Z,101454.91
2023-02-09T04:49:49.868Z,101457.53
2023-02-09T04:50:21.309Z,101452.66
2023-02-09T04:50:52.736Z,101447.72
2023-02-09T04:51:24.140Z,101454.31
2023-02-09T04:51:55.544Z,101453.41
2023-02-09T04:52:26.973Z,101457.53
2023-02-09T04:52:58.383Z,101456.13
2023-02-09T04:53:29.787Z,101452.91
2023-02-09T04:54:01.368Z,101447.72
2023-02-09T04:54:32.800Z,101449.13
2023-02-09T04:55:04.204Z,101454.91
2023-02-09T04:55:35.650Z,101442.09
2023-02-09T04:56:07.043Z,101445.06
2023-02-09T04:56:38.969Z,101446.97
2023-02-09T04:57:10.409Z,101443.16
2023-02-09T04:57:41.884Z,101447.78
2023-02-09T04:58:13.293Z,101443.41
2023-02-09T04:58:44.712Z,101444.50
2023-02-09T04:59:16.191Z,101438.47
2023-02-09T04:59:47.557Z,101440.69
2023-02-09T05:00:18.993Z,101441.19
2023-02-09T05:00:50.408Z,101436.06
2023-02-09T05:01:21.858Z,101442.00
2023-02-09T05:01:53.353Z,101441.75
2023-02-09T05:02:24.789Z,101443.09
2023-02-09T05:02:56.194Z,101444.75
2023-02-09T05:03:27.639Z,101438.78
2023-02-09T05:03:59.188Z,101442.34
2023-02-09T05:04:30.808Z,101446.97
2023-02-09T05:05:02.201Z,101447.22
2023-02-09T05:05:33.620Z,101449.94
2023-02-09T05:06:05.033Z,101445.31
2023-02-09T05:06:36.425Z,101452.41
2023-02-09T05:07:07.812Z,101444.25
2023-02-09T05:07:39.208Z,101448.88
2023-02-09T05:08:10.701Z,101447.22
2023-02-09T05:08:42.109Z,101445.56
2023-02-09T05:09:13.546Z,101441.75
2023-02-09T05:09:45.003Z,101443.66
2023-02-09T05:10:16.447Z,101445.31
2023-02-09T05:10:48.007Z,101441.53
2023-02-09T05:11:19.519Z,101442.59
2023-02-09T05:11:50.898Z,101434.41
2023-02-09T05:12:22.312Z,101432.78
2023-02-09T05:12:53.725Z,101432.78
2023-02-09T05:13:25.149Z,101435.50
2023-02-09T05:13:56.537Z,101437.41
2023-02-09T05:14:27.972Z,101434.66
2023-02-09T05:14:59.510Z,101433.84
2023-02-09T05:15:30.926Z,101428.16
2023-02-09T05:16:02.334Z,101431.13
2023-02-09T05:16:33.805Z,101431.94
2023-02-09T05:17:05.199Z,101430.28
2023-02-09T05:17:36.588Z,101431.94
2023-02-09T05:18:08.008Z,101433.84
2023-02-09T05:18:39.385Z,101436.81
2023-02-09T05:19:10.802Z,101431.38
2023-02-09T05:19:42.437Z,101433.84
2023-02-09T05:20:13.879Z,101427.81
2023-02-09T05:20:45.614Z,101426.41
2023-02-09T05:21:17.275Z,101430.28
2023-02-09T05:21:48.667Z,101431.13
2023-02-09T05:22:20.093Z,101431.38
2023-02-09T05:22:51.491Z,101432.44
2023-02-09T05:23:22.919Z,101436.25
2023-02-09T05:23:54.331Z,101431.38
2023-02-09T05:24:25.708Z,101429.22
2023-02-09T05:24:57.102Z,101427.56
2023-02-09T05:25:28.550Z,101427.06
2023-02-09T05:25:59.989Z,101427.31
2023-02-09T05:26:31.462Z,101419.41
2023-02-09T05:27:02.863Z,101419.41
2023-02-09T05:27:34.284Z,101416.66
2023-02-09T05:28:05.770Z,101422.13
2023-02-09T05:28:37.144Z,101416.91
2023-02-09T05:29:08.604Z,101421.03
2023-02-09T05:29:40.003Z,101415.34
2023-02-09T05:30:11.664Z,101418.56
2023-02-09T05:30:43.312Z,101421.88
2023-02-09T05:31:14.955Z,101413.94
2023-02-09T05:31:46.504Z,101418.81
2023-02-09T05:32:18.001Z,101416.66
2023-02-09T05:32:49.472Z,101412.88
2023-02-09T05:33:20.925Z,101417.25
2023-02-09T05:33:52.344Z,101420.78
2023-02-09T05:34:23.744Z,101421.03
2023-02-09T05:34:57.847Z,101431.69
2023-02-09T05:35:29.289Z,101421.88
2023-02-09T05:36:00.734Z,101432.53
2023-02-09T05:36:32.152Z,101429.78
2023-02-09T05:37:03.570Z,101434.41
2023-02-09T05:37:35.059Z,101426.50
2023-02-09T05:38:06.479Z,101425.41
2023-02-09T05:38:37.862Z,101419.97
2023-02-09T05:39:09.343Z,101434.41
2023-02-09T05:39:40.728Z,101429.22
2023-02-09T05:40:13.832Z,101427.56
2023-02-09T05:40:45.506Z,101433.84
2023-02-09T05:41:17.017Z,101430.88
2023-02-09T05:41:48.446Z,101434.66
2023-02-09T05:42:19.844Z,101438.78
2023-02-09T05:42:51.283Z,101431.44
2023-02-09T05:43:22.649Z,101432.78
2023-02-09T05:43:54.049Z,101428.97
2023-02-09T05:44:25.463Z,101437.16
2023-02-09T05:44:56.839Z,101430.88
2023-02-09T05:45:28.226Z,101434.66
2023-02-09T05:45:59.687Z,101430.28
2023-02-09T05:46:31.147Z,101422.69
2023-02-09T05:47:02.634Z,101437.41
2023-02-09T05:47:34.077Z,101439.28
2023-02-09T05:48:05.550Z,101432.78
2023-02-09T05:48:36.958Z,101441.75
2023-02-09T05:49:08.360Z,101433.59
2023-02-09T05:49:39.814Z,101439.88
2023-02-09T05:50:11.242Z,101437.97
2023-02-09T05:50:42.712Z,101439.03
2023-02-09T05:51:14.136Z,101437.16
2023-02-09T05:51:45.637Z,101441.75
2023-02-09T05:52:17.056Z,101437.41
2023-02-09T05:52:48.481Z,101440.13
2023-02-09T05:53:19.894Z,101440.13
2023-02-09T05:53:51.241Z,101438.47
2023-02-09T05:54:22.657Z,101440.13
2023-02-09T05:54:54.108Z,101436.31
2023-02-09T05:55:25.535Z,101443.41
2023-02-09T05:55:56.975Z,101441.75
2023-02-09T05:56:28.405Z,101444.50
2023-02-09T05:56:59.871Z,101433.84
2023-02-09T05:57:31.344Z,101443.91
2023-02-09T05:58:02.753Z,101434.66
2023-02-09T05:58:34.190Z,101439.03
2023-02-09T05:59:05.622Z,101441.75
2023-02-09T05:59:37.001Z,101448.88